Time;durP1;ratioP1;P1;durP2;ratioP2;P2;SDS_P1;SDS_P2;PMS_P1;PMS_P2;Temp;Humidity;BMP_temperature;BMP_pressure;BME280_temperature;BME280_humidity;BME280_pressure;Samples;Min_cycle;Max_cycle;Signal;HPM_P1;HPM_P2
2021/01/08 00:00:19;;;;;;;21.70;15.10;;;;;;;0.74;84.86;99493.84;1795875;79;25233;-69
2021/01/08 00:02:48;;;;;;;21.13;14.33;;;;;;;0.75;84.94;99488.21;1795222;79;25281;-68
2021/01/08 00:05:15;;;;;;;19.50;13.00;;;;;;;0.76;84.96;99490.37;1795758;78;25246;-69
2021/01/08 00:07:41;;;;;;;20.37;14.47;;;;;;;0.76;85.03;99486.48;1795795;79;25201;-68
2021/01/08 00:10:09;;;;;;;20.30;14.87;;;;;;;0.76;85.15;99480.02;1795988;78;25739;-68
2021/01/08 00:12:36;;;;;;;20.43;14.23;;;;;;;0.77;85.19;99479.09;1795920;79;25300;-68
2021/01/08 00:15:06;;;;;;;19.57;13.60;;;;;;;0.78;85.23;99478.20;1795875;79;25214;-68
2021/01/08 00:17:33;;;;;;;18.53;13.47;;;;;;;0.77;85.29;99476.50;1795666;79;25193;-69
2021/01/08 00:20:00;;;;;;;19.97;13.00;;;;;;;0.80;85.35;99473.80;1795729;78;25692;-68
2021/01/08 00:22:27;;;;;;;18.67;12.57;;;;;;;0.80;85.27;99478.52;1795754;78;25217;-68
2021/01/08 00:24:54;;;;;;;18.40;13.30;;;;;;;0.78;85.28;99478.20;1795787;78;25754;-69
2021/01/08 00:27:21;;;;;;;18.43;12.37;;;;;;;0.77;85.33;99481.22;1795870;79;25206;-69
2021/01/08 00:29:47;;;;;;;18.07;12.53;;;;;;;0.76;85.41;99483.90;1795655;78;25221;-69
2021/01/08 00:32:14;;;;;;;18.23;12.93;;;;;;;0.79;85.48;99484.62;1795899;79;25739;-68
2021/01/08 00:34:40;;;;;;;17.63;12.50;;;;;;;0.79;85.21;99486.34;1795832;79;25313;-68
2021/01/08 00:37:07;;;;;;;17.80;11.57;;;;;;;0.73;85.18;99470.61;1795767;79;25316;-69
2021/01/08 00:39:34;;;;;;;17.00;11.67;;;;;;;0.71;85.29;99470.67;1795755;78;25154;-69
2021/01/08 00:42:06;;;;;;;14.90;11.23;;;;;;;0.71;85.30;99475.84;1795671;78;25229;-69
2021/01/08 00:44:33;;;;;;;16.67;11.30;;;;;;;0.72;85.35;99478.84;1795815;79;25222;-69
2021/01/08 00:47:00;;;;;;;17.70;11.87;;;;;;;0.68;85.46;99469.48;1795671;79;25233;-70
2021/01/08 00:49:26;;;;;;;17.80;12.33;;;;;;;0.69;85.52;99476.36;1795796;79;25186;-69
2021/01/08 00:51:53;;;;;;;20.83;13.60;;;;;;;0.71;85.55;99477.14;1795527;78;25204;-69
2021/01/08 00:54:20;;;;;;;19.30;13.70;;;;;;;0.71;85.56;99473.25;1795735;78;25079;-69
2021/01/08 00:56:54;;;;;;;18.90;12.87;;;;;;;0.70;85.53;99475.47;1795522;78;25209;-69
2021/01/08 00:59:34;;;;;;;20.33;13.20;;;;;;;0.68;85.51;99479.84;1772696;78;25573;-69
2021/01/08 01:02:01;;;;;;;18.43;11.77;;;;;;;0.67;85.36;99476.02;1795819;79;25181;-69
2021/01/08 01:04:28;;;;;;;18.90;11.73;;;;;;;0.68;85.29;99482.43;1795822;78;25257;-68
2021/01/08 01:06:54;;;;;;;16.73;10.97;;;;;;;0.68;85.45;99485.02;1793679;78;25325;-68
2021/01/08 01:09:21;;;;;;;17.67;11.77;;;;;;;0.70;85.48;99483.23;1792991;78;25626;-68
2021/01/08 01:11:48;;;;;;;16.60;11.37;;;;;;;0.74;85.59;99478.31;1793110;80;25233;-69
2021/01/08 01:14:14;;;;;;;15.57;10.90;;;;;;;0.80;85.57;99484.16;1792963;78;25154;-68
2021/01/08 01:16:41;;;;;;;15.17;10.47;;;;;;;0.85;85.61;99485.64;1792967;79;25266;-69
2021/01/08 01:19:08;;;;;;;13.80;9.37;;;;;;;0.91;85.40;99491.05;1792807;78;25677;-69
2021/01/08 01:21:35;;;;;;;13.37;9.57;;;;;;;0.93;84.99;99486.64;1792877;78;25672;-69
2021/01/08 01:24:02;;;;;;;13.07;9.53;;;;;;;0.94;84.84;99488.34;1792998;78;25219;-68
2021/01/08 01:26:29;;;;;;;13.73;9.07;;;;;;;0.92;84.20;99484.95;1792841;78;25740;-69
2021/01/08 01:28:56;;;;;;;13.27;8.93;;;;;;;0.89;83.93;99485.93;1766490;80;25233;-69
2021/01/08 01:31:23;;;;;;;15.20;9.00;;;;;;;0.86;84.02;99483.45;1766372;80;25646;-69
2021/01/08 01:33:49;;;;;;;13.13;8.80;;;;;;;0.83;84.10;99482.74;1792953;78;25281;-69
2021/01/08 01:36:17;;;;;;;14.67;10.60;;;;;;;0.83;84.20;99485.33;1793016;80;25186;-69
2021/01/08 01:38:43;;;;;;;15.73;10.77;;;;;;;0.82;84.21;99479.75;1792859;78;25224;-68
2021/01/08 01:41:10;;;;;;;15.30;10.90;;;;;;;0.82;84.04;99478.02;1766508;78;25269;-68
2021/01/08 01:43:37;;;;;;;14.97;10.00;;;;;;;0.80;83.71;99480.27;1792958;78;25224;-69
2021/01/08 01:46:03;;;;;;;16.07;10.17;;;;;;;0.74;83.97;99482.20;1792896;80;25293;-69
2021/01/08 01:48:30;;;;;;;14.73;9.50;;;;;;;0.74;84.02;99484.79;1792810;80;25613;-69
2021/01/08 01:50:57;;;;;;;12.80;8.73;;;;;;;0.74;84.16;99480.91;1792969;78;25356;-68
2021/01/08 01:53:25;;;;;;;11.80;8.20;;;;;;;0.78;83.94;99483.37;1792908;80;25723;-68
2021/01/08 01:55:52;;;;;;;13.47;8.77;;;;;;;0.75;84.06;99481.73;1793021;80;25197;-68
2021/01/08 01:58:21;;;;;;;12.43;9.03;;;;;;;0.77;84.06;99488.16;1792949;78;25353;-68
2021/01/08 02:00:48;;;;;;;13.60;9.50;;;;;;;0.79;84.07;99483.75;1767315;78;25332;-68
2021/01/08 02:03:25;;;;;;;14.10;9.07;;;;;;;0.82;84.04;99483.63;1793149;78;25328;-69
2021/01/08 02:06:00;;;;;;;14.83;9.17;;;;;;;0.85;83.98;99488.23;1792977;80;25740;-68
2021/01/08 02:08:27;;;;;;;12.73;8.80;;;;;;;0.87;83.84;99480.41;1788797;79;25135;-68
2021/01/08 02:11:09;;;;;;;12.37;8.27;;;;;;;0.88;83.76;99485.98;1786871;79;25305;-68
2021/01/08 02:14:06;;;;;;;12.47;8.17;;;;;;;0.91;83.86;99481.52;1849879;76;26877;-68
2021/01/08 02:16:34;;;;;;;12.43;8.37;;;;;;;0.85;83.40;99479.17;1819774;78;25683;-69
2021/01/08 02:19:01;;;;;;;12.17;8.23;;;;;;;0.83;83.37;99475.81;1819724;78;25616;-68
2021/01/08 02:21:33;;;;;;;10.50;8.00;;;;;;;0.82;83.51;99477.16;1819645;77;25724;-68
2021/01/08 02:24:05;;;;;;;11.50;8.13;;;;;;;0.81;83.28;99476.79;1819744;78;25255;-69
2021/01/08 02:26:32;;;;;;;11.80;7.37;;;;;;;0.80;83.33;99477.22;1819907;78;25282;-68
2021/01/08 02:28:59;;;;;;;10.83;7.93;;;;;;;0.77;83.34;99474.75;1819771;77;25685;-67
2021/01/08 02:31:26;;;;;;;11.07;8.40;;;;;;;0.75;83.50;99476.56;1819737;77;25252;-67
2021/01/08 02:33:52;;;;;;;10.43;7.80;;;;;;;0.76;83.46;99476.13;1819699;78;25298;-68
2021/01/08 02:36:19;;;;;;;11.30;8.20;;;;;;;0.75;83.67;99476.56;1819679;78;25198;-69
2021/01/08 02:38:51;;;;;;;10.50;7.53;;;;;;;0.76;83.60;99483.44;1819747;78;25599;-68
2021/01/08 02:41:19;;;;;;;11.50;7.90;;;;;;;0.76;83.29;99478.72;1819793;77;25255;-69
2021/01/08 02:43:46;;;;;;;9.77;7.80;;;;;;;0.73;83.40;99477.91;1819728;77;25243;-68
2021/01/08 02:46:14;;;;;;;10.70;7.77;;;;;;;0.73;83.40;99483.09;1819607;77;25690;-69
2021/01/08 02:48:40;;;;;;;10.50;7.80;;;;;;;0.69;83.48;99478.95;1819620;77;25279;-68
2021/01/08 02:51:07;;;;;;;11.97;8.50;;;;;;;0.71;83.62;99478.89;1800059;78;25308;-68
2021/01/08 02:53:34;;;;;;;12.23;8.10;;;;;;;0.71;83.74;99479.73;1787410;80;25195;-69
2021/01/08 02:56:07;;;;;;;12.70;8.73;;;;;;;0.73;83.73;99467.56;1787462;80;25677;-68
2021/01/08 02:58:34;;;;;;;14.10;9.37;;;;;;;0.76;83.71;99474.84;1787506;79;25067;-69
2021/01/08 03:01:01;;;;;;;12.70;9.10;;;;;;;0.77;83.51;99468.27;1787333;79;25269;-69
2021/01/08 03:03:28;;;;;;;13.70;10.07;;;;;;;0.74;83.39;99473.14;1787451;79;25122;-68
2021/01/08 03:05:58;;;;;;;14.80;9.83;;;;;;;0.75;83.39;99472.68;1756955;80;25191;-68
2021/01/08 03:08:26;;;;;;;15.13;9.93;;;;;;;0.72;83.44;99473.66;1787505;80;25198;-68
2021/01/08 03:10:52;;;;;;;13.33;9.87;;;;;;;0.71;83.43;99471.12;1787409;79;25135;-67
2021/01/08 03:13:19;;;;;;;14.10;10.00;;;;;;;0.68;83.23;99464.31;1787446;79;25288;-67
2021/01/08 03:15:46;;;;;;;13.90;9.60;;;;;;;0.66;83.40;99465.30;1787552;79;25249;-68
2021/01/08 03:18:13;;;;;;;14.70;10.00;;;;;;;0.65;83.33;99476.08;1787431;79;25284;-68
2021/01/08 03:20:39;;;;;;;14.13;10.20;;;;;;;0.64;83.53;99466.64;1787526;79;25225;-68
2021/01/08 03:23:08;;;;;;;14.17;9.80;;;;;;;0.65;83.68;99465.72;1787191;79;25617;-68
2021/01/08 03:25:35;;;;;;;14.80;10.10;;;;;;;0.65;83.73;99461.84;1786854;80;25214;-68
2021/01/08 03:28:01;;;;;;;14.07;10.07;;;;;;;0.63;83.64;99464.95;1786928;79;25401;-69
2021/01/08 03:30:28;;;;;;;16.83;11.07;;;;;;;0.61;83.52;99473.23;1786992;80;25253;-68
2021/01/08 03:32:55;;;;;;;16.63;10.97;;;;;;;0.58;83.46;99469.46;1786785;80;25336;-68
2021/01/08 03:35:21;;;;;;;17.13;10.50;;;;;;;0.56;83.61;99466.09;1786741;80;25633;-68
2021/01/08 03:37:48;;;;;;;15.03;10.27;;;;;;;0.57;83.65;99468.23;1786830;79;25273;-68
2021/01/08 03:40:15;;;;;;;14.13;10.60;;;;;;;0.54;83.81;99465.33;1786798;79;25289;-68
2021/01/08 03:42:41;;;;;;;14.27;10.07;;;;;;;0.52;83.93;99461.50;1786699;79;25312;-68
2021/01/08 03:45:10;;;;;;;14.27;10.40;;;;;;;0.52;84.01;99458.05;1786909;79;25367;-68
2021/01/08 03:47:36;;;;;;;13.90;10.17;;;;;;;0.52;83.98;99455.45;1786696;80;25688;-68
2021/01/08 03:50:04;;;;;;;13.97;10.20;;;;;;;0.49;83.95;99458.20;1786953;78;25465;-69
2021/01/08 03:52:30;;;;;;;15.30;9.90;;;;;;;0.49;83.92;99451.72;1786880;79;25316;-68
2021/01/08 03:54:57;;;;;;;15.93;11.37;;;;;;;0.45;84.07;99452.27;1786842;79;25313;-68
2021/01/08 03:57:23;;;;;;;14.27;10.90;;;;;;;0.46;84.21;99452.67;1786822;80;25202;-68
2021/01/08 03:59:50;;;;;;;15.87;11.10;;;;;;;0.42;84.40;99451.55;1786670;79;25296;-68
2021/01/08 04:02:17;;;;;;;15.07;11.00;;;;;;;0.44;84.51;99454.94;1786903;80;25712;-69
2021/01/08 04:04:44;;;;;;;16.60;10.80;;;;;;;0.44;84.65;99452.36;1787053;80;25209;-68
2021/01/08 04:07:10;;;;;;;14.80;10.40;;;;;;;0.42;84.69;99458.02;1786770;80;25277;-69
2021/01/08 04:09:37;;;;;;;16.60;11.10;;;;;;;0.41;84.81;99456.35;1786837;79;25320;-69
2021/01/08 04:12:04;;;;;;;15.23;10.87;;;;;;;0.42;84.95;99452.41;1786846;79;25210;-68
2021/01/08 04:14:31;;;;;;;15.10;10.53;;;;;;;0.46;85.10;99456.55;1795711;78;25222;-69
2021/01/08 04:16:57;;;;;;;15.33;11.03;;;;;;;0.48;85.15;99454.73;1795782;78;25135;-68
2021/01/08 04:19:24;;;;;;;14.97;11.03;;;;;;;0.50;85.13;99451.67;1795883;79;25345;-69
2021/01/08 04:21:50;;;;;;;16.67;11.63;;;;;;;0.51;84.98;99454.63;1795641;79;25716;-68
2021/01/08 04:24:17;;;;;;;14.90;11.40;;;;;;;0.52;84.96;99456.33;1795612;78;25308;-68
2021/01/08 04:26:44;;;;;;;15.87;11.20;;;;;;;0.53;84.97;99454.57;1795791;78;25621;-70
2021/01/08 04:29:11;;;;;;;18.93;12.17;;;;;;;0.55;84.98;99460.52;1795782;78;25293;-68
2021/01/08 04:31:38;;;;;;;15.70;11.00;;;;;;;0.53;85.05;99458.45;1795747;79;25277;-69
2021/01/08 04:34:05;;;;;;;17.43;11.23;;;;;;;0.54;85.11;99458.86;1795826;78;25376;-68
2021/01/08 04:36:31;;;;;;;20.27;12.33;;;;;;;0.51;85.14;99458.97;1795629;79;25276;-68
2021/01/08 04:38:58;;;;;;;17.90;12.70;;;;;;;0.48;85.26;99462.50;1795846;78;25727;-69
2021/01/08 04:41:24;;;;;;;19.33;12.83;;;;;;;0.48;85.34;99464.26;1795721;79;25567;-69
2021/01/08 04:43:51;;;;;;;18.20;12.20;;;;;;;0.50;85.45;99458.14;1795717;78;25206;-68
2021/01/08 04:46:25;;;;;;;16.13;11.57;;;;;;;0.52;85.52;99463.22;1795904;78;25277;-69
2021/01/08 04:48:57;;;;;;;16.43;11.53;;;;;;;0.50;85.50;99462.45;1795748;78;25293;-69
2021/01/08 04:51:26;;;;;;;17.40;11.67;;;;;;;0.49;85.40;99458.20;1795811;78;25280;-68
2021/01/08 04:53:53;;;;;;;17.47;12.73;;;;;;;0.48;85.22;99457.33;1769114;79;25154;-69
2021/01/08 04:56:25;;;;;;;16.50;12.37;;;;;;;0.45;85.32;99457.44;1769045;79;25672;-68
2021/01/08 04:58:52;;;;;;;16.80;11.80;;;;;;;0.44;85.45;99454.94;1769840;79;25223;-68
2021/01/08 05:01:19;;;;;;;18.80;13.17;;;;;;;0.43;85.51;99452.78;1795702;78;25727;-70
2021/01/08 05:03:47;;;;;;;22.07;16.03;;;;;;;0.42;85.63;99456.30;1795744;79;25210;-69
2021/01/08 05:06:13;;;;;;;20.53;13.13;;;;;;;0.44;85.67;99458.83;1769011;79;25277;-68
2021/01/08 05:08:40;;;;;;;19.63;13.63;;;;;;;0.43;85.78;99456.66;1795797;79;25254;-69
2021/01/08 05:11:25;;;;;;;17.50;12.63;;;;;;;0.42;85.78;99458.88;1795857;79;25146;-69
2021/01/08 05:13:54;;;;;;;18.60;12.57;;;;;;;0.44;85.87;99455.77;1795794;79;25810;-69
2021/01/08 05:16:23;;;;;;;18.03;12.10;;;;;;;0.44;85.80;99452.36;1795909;79;25233;-68
2021/01/08 05:18:51;;;;;;;17.87;13.10;;;;;;;0.43;85.65;99451.95;1795858;78;25288;-69
2021/01/08 05:21:18;;;;;;;19.50;12.37;;;;;;;0.40;85.45;99455.48;1795742;78;25810;-69
2021/01/08 05:23:44;;;;;;;18.73;13.13;;;;;;;0.38;85.51;99455.17;1795820;78;25248;-69
2021/01/08 05:26:16;;;;;;;18.60;12.93;;;;;;;0.36;85.68;99455.23;1795692;78;25206;-69
2021/01/08 05:28:57;;;;;;;17.87;12.70;;;;;;;0.36;85.75;99452.64;1795803;78;25205;-68
2021/01/08 05:31:27;;;;;;;19.00;13.23;;;;;;;0.33;85.81;99452.75;1795770;78;25079;-69
2021/01/08 05:33:54;;;;;;;26.77;16.70;;;;;;;0.29;85.86;99457.20;1795404;79;25281;-69
2021/01/08 05:36:22;;;;;;;17.97;12.87;;;;;;;0.28;86.03;99455.97;1795707;79;25308;-68
2021/01/08 05:38:51;;;;;;;45.17;25.47;;;;;;;0.28;86.12;99447.74;1795714;78;25436;-68
2021/01/08 05:41:19;;;;;;;19.93;13.53;;;;;;;0.27;86.18;99453.84;1795684;78;25340;-69
2021/01/08 05:43:47;;;;;;;21.70;14.03;;;;;;;0.27;86.25;99451.25;1795798;78;25301;-69
2021/01/08 05:46:20;;;;;;;18.77;13.13;;;;;;;0.25;86.35;99454.36;1795713;79;25253;-69
2021/01/08 05:48:58;;;;;;;20.53;14.17;;;;;;;0.26;86.39;99452.60;1795840;78;25320;-69
2021/01/08 05:51:29;;;;;;;18.43;12.13;;;;;;;0.26;86.46;99450.84;1794405;78;25245;-69
2021/01/08 05:54:00;;;;;;;18.30;13.37;;;;;;;0.24;86.49;99451.36;1795788;79;25293;-68
2021/01/08 05:56:27;;;;;;;18.40;11.90;;;;;;;0.24;86.51;99453.95;1795729;78;25289;-68
2021/01/08 05:58:54;;;;;;;18.77;12.67;;;;;;;0.23;86.53;99452.25;1795808;78;25226;-68
2021/01/08 06:01:21;;;;;;;19.57;13.17;;;;;;;0.24;86.64;99447.95;1795613;78;25754;-68
2021/01/08 06:03:48;;;;;;;20.03;13.27;;;;;;;0.24;86.65;99452.66;1795648;78;25337;-68
2021/01/08 06:06:15;;;;;;;19.37;13.10;;;;;;;0.24;86.78;99455.24;1743642;79;25680;-69
2021/01/08 06:08:50;;;;;;;21.97;14.13;;;;;;;0.25;86.79;99456.95;1795716;78;25281;-69
2021/01/08 06:11:30;;;;;;;19.87;14.40;;;;;;;0.24;86.89;99447.95;1795622;79;25718;-69
2021/01/08 06:14:00;;;;;;;23.10;14.43;;;;;;;0.23;86.87;99456.59;1795565;78;25831;-68
2021/01/08 06:16:39;;;;;;;18.80;13.27;;;;;;;0.23;87.00;99452.72;1795751;78;25692;-69
2021/01/08 06:19:06;;;;;;;19.00;13.07;;;;;;;0.21;87.01;99454.52;1795786;79;25205;-68
2021/01/08 06:21:38;;;;;;;17.93;12.33;;;;;;;0.23;87.04;99454.84;1795582;79;25489;-69
2021/01/08 06:24:07;;;;;;;19.20;12.40;;;;;;;0.23;87.16;99463.06;1795645;78;25194;-69
2021/01/08 06:26:34;;;;;;;19.00;12.70;;;;;;;0.24;87.27;99462.17;1795536;78;25227;-68
2021/01/08 06:29:02;;;;;;;18.90;12.63;;;;;;;0.24;87.25;99470.77;1795597;78;25201;-68
2021/01/08 06:31:48;;;;;;;17.33;12.27;;;;;;;0.26;87.42;99462.48;1795733;78;25304;-68
2021/01/08 06:34:29;;;;;;;18.37;13.33;;;;;;;0.27;87.51;99462.89;1795661;79;25079;-68
2021/01/08 06:37:08;;;;;;;19.33;15.13;;;;;;;0.28;87.47;99466.31;1795821;79;25325;-69
2021/01/08 06:39:38;;;;;;;22.27;15.23;;;;;;;0.30;87.51;99473.13;1795634;78;25059;-69
2021/01/08 06:42:06;;;;;;;21.03;16.17;;;;;;;0.28;87.50;99469.73;1794953;79;25180;-69
2021/01/08 06:44:33;;;;;;;26.13;18.50;;;;;;;0.30;87.58;99469.25;1795788;79;25056;-68
2021/01/08 06:47:03;;;;;;;25.33;19.13;;;;;;;0.31;87.61;99468.33;1795734;79;25143;-69
2021/01/08 06:49:31;;;;;;;23.73;17.57;;;;;;;0.32;87.62;99464.86;1795652;78;25273;-68
2021/01/08 06:52:01;;;;;;;28.83;19.67;;;;;;;0.34;87.73;99471.27;1795703;78;25130;-69
2021/01/08 06:54:28;;;;;;;41.33;21.43;;;;;;;0.38;87.71;99479.75;1795365;78;25151;-69
2021/01/08 06:57:00;;;;;;;31.90;18.33;;;;;;;0.33;87.62;99475.58;1795708;78;25130;-68
2021/01/08 06:59:33;;;;;;;35.47;20.17;;;;;;;0.32;87.64;99480.38;1795825;78;25142;-68
2021/01/08 07:02:13;;;;;;;45.43;23.77;;;;;;;0.30;87.75;99482.19;1768791;79;25375;-68
2021/01/08 07:04:40;;;;;;;39.20;23.30;;;;;;;0.32;87.82;99485.55;1795931;79;25205;-68
2021/01/08 07:07:13;;;;;;;32.00;19.83;;;;;;;0.34;87.83;99481.16;1795726;78;25569;-69
2021/01/08 07:09:40;;;;;;;30.23;17.40;;;;;;;0.34;87.81;99475.98;1795782;79;25664;-68
2021/01/08 07:12:09;;;;;;;25.23;15.03;;;;;;;0.32;87.79;99484.26;1795838;78;25154;-68
2021/01/08 07:14:36;;;;;;;25.43;14.80;;;;;;;0.32;87.77;99472.61;1790408;79;25111;-69
2021/01/08 07:17:09;;;;;;;22.83;14.30;;;;;;;0.34;87.82;99486.33;1786938;80;25059;-70
2021/01/08 07:19:39;;;;;;;19.53;13.97;;;;;;;0.36;87.82;99489.69;1786869;80;25222;-68
2021/01/08 07:22:07;;;;;;;23.77;16.27;;;;;;;0.41;87.71;99488.69;1786929;79;25186;-68
2021/01/08 07:24:37;;;;;;;22.90;15.57;;;;;;;0.40;87.68;99489.13;1786846;79;25732;-69
2021/01/08 07:27:24;;;;;;;23.73;16.10;;;;;;;0.43;87.69;99501.11;1786872;79;25151;-68
2021/01/08 07:29:55;;;;;;;22.73;14.77;;;;;;;0.45;87.66;99496.25;1786787;79;25796;-69
2021/01/08 07:32:49;;;;;;;21.43;14.50;;;;;;;0.45;87.64;99494.12;1786874;80;25328;-68
2021/01/08 07:35:26;;;;;;;23.13;15.40;;;;;;;0.49;87.59;99503.48;1786406;79;25071;-68
2021/01/08 07:38:15;;;;;;;23.93;15.97;;;;;;;0.50;87.29;99503.85;1786926;79;25851;-68
2021/01/08 07:40:55;;;;;;;26.80;17.43;;;;;;;0.49;86.92;99502.19;1786866;79;25232;-69
2021/01/08 07:43:35;;;;;;;27.37;17.40;;;;;;;0.47;87.01;99505.26;1786957;79;25322;-68
2021/01/08 07:46:04;;;;;;;21.83;14.53;;;;;;;0.51;87.03;99515.91;1786838;79;25135;-68
2021/01/08 07:48:40;;;;;;;22.77;14.83;;;;;;;0.52;86.96;99511.96;1786675;79;25158;-68
2021/01/08 07:51:10;;;;;;;21.60;14.90;;;;;;;0.52;87.01;99516.27;1786793;78;25733;-69
2021/01/08 07:53:50;;;;;;;27.07;17.77;;;;;;;0.52;87.06;99513.69;1786866;79;25632;-68
2021/01/08 07:56:26;;;;;;;22.63;15.67;;;;;;;0.54;87.09;99509.31;1786851;79;25625;-68
2021/01/08 07:59:00;;;;;;;20.87;16.30;;;;;;;0.57;87.00;99506.63;1786800;80;25281;-69
2021/01/08 08:01:29;;;;;;;24.47;16.53;;;;;;;0.61;86.91;99509.92;1786858;79;25138;-68
2021/01/08 08:04:04;;;;;;;21.43;16.00;;;;;;;0.59;86.88;99511.28;1786915;80;25189;-68
2021/01/08 08:06:33;;;;;;;30.30;19.73;;;;;;;0.63;86.64;99511.54;1786777;80;25314;-67
2021/01/08 08:09:04;;;;;;;25.40;16.87;;;;;;;0.64;86.59;99517.12;1786799;79;25335;-68
2021/01/08 08:11:36;;;;;;;22.97;15.30;;;;;;;0.70;86.39;99513.02;1786745;80;25605;-68
2021/01/08 08:14:05;;;;;;;21.70;14.00;;;;;;;0.73;86.31;99510.27;1788726;78;25190;-68
2021/01/08 08:16:39;;;;;;;24.10;16.50;;;;;;;0.76;86.25;99510.63;1795780;79;25700;-68
2021/01/08 08:19:10;;;;;;;22.30;16.10;;;;;;;0.82;86.33;99517.30;1795832;79;25114;-68
2021/01/08 08:21:37;;;;;;;51.83;31.13;;;;;;;0.91;85.95;99516.95;1795869;79;25699;-68
2021/01/08 08:24:05;;;;;;;23.90;16.03;;;;;;;0.94;85.64;99519.42;1795716;79;25201;-68
2021/01/08 08:26:34;;;;;;;25.07;17.43;;;;;;;0.99;85.02;99516.62;1795872;78;25266;-68
2021/01/08 08:29:15;;;;;;;28.30;19.67;;;;;;;0.98;84.78;99512.37;1768930;79;25217;-68
2021/01/08 08:31:48;;;;;;;25.40;17.90;;;;;;;1.00;84.79;99520.45;1795911;78;25114;-69
2021/01/08 08:34:16;;;;;;;34.20;23.70;;;;;;;1.02;84.73;99524.27;1795164;79;25627;-68
2021/01/08 08:36:43;;;;;;;23.57;15.87;;;;;;;1.03;84.76;99520.33;1768876;79;25122;-69
2021/01/08 08:39:14;;;;;;;20.10;15.63;;;;;;;1.08;84.44;99519.69;1795754;79;25655;-70
2021/01/08 08:41:45;;;;;;;19.50;14.13;;;;;;;1.09;84.39;99527.03;1769610;79;25141;-68
2021/01/08 08:44:17;;;;;;;21.93;15.33;;;;;;;1.08;84.18;99525.33;1795708;78;25245;-69
2021/01/08 08:46:56;;;;;;;21.77;15.77;;;;;;;1.12;83.94;99524.30;1795805;78;25051;-69
2021/01/08 08:49:25;;;;;;;21.23;14.50;;;;;;;1.16;84.21;99527.59;1795667;79;25217;-69
2021/01/08 08:51:54;;;;;;;28.33;16.60;;;;;;;1.20;84.05;99523.53;1795750;78;25114;-69
2021/01/08 08:54:21;;;;;;;20.63;14.80;;;;;;;1.25;84.06;99521.59;1795779;78;25273;-69
2021/01/08 08:56:51;;;;;;;18.27;14.47;;;;;;;1.32;83.85;99524.77;1795769;78;25604;-68
2021/01/08 08:59:46;;;;;;;20.93;14.73;;;;;;;1.37;83.35;99521.54;1795830;78;25142;-69
2021/01/08 09:02:28;;;;;;;21.57;14.43;;;;;;;1.42;82.51;99517.47;1795670;78;25249;-68
2021/01/08 09:04:58;;;;;;;18.63;14.83;;;;;;;1.42;82.44;99520.89;1795736;78;25676;-69
2021/01/08 09:07:47;;;;;;;21.40;14.93;;;;;;;1.43;82.89;99519.16;1795668;78;25202;-69
2021/01/08 09:10:18;;;;;;;21.13;14.83;;;;;;;1.51;82.28;99522.28;1795924;78;25242;-69
2021/01/08 09:13:14;;;;;;;16.20;12.77;;;;;;;1.61;81.99;99524.00;1795750;78;25149;-69
2021/01/08 09:16:12;;;;;;;23.33;17.40;;;;;;;1.64;81.80;99520.86;1795571;79;25111;-69
2021/01/08 09:18:52;;;;;;;19.33;14.37;;;;;;;1.69;81.40;99524.52;1795827;78;25210;-69
2021/01/08 09:21:24;;;;;;;27.07;17.53;;;;;;;1.74;80.84;99525.17;1795761;78;25257;-69
2021/01/08 09:23:53;;;;;;;16.30;11.67;;;;;;;1.70;80.85;99517.15;1795836;79;25250;-69
2021/01/08 09:26:21;;;;;;;16.80;12.20;;;;;;;1.72;80.59;99527.45;1795773;78;25283;-69
2021/01/08 09:28:50;;;;;;;18.00;13.13;;;;;;;1.73;80.40;99527.39;1769005;79;25603;-69
2021/01/08 09:31:17;;;;;;;20.53;14.33;;;;;;;1.76;80.31;99529.00;1795720;78;25755;-69
2021/01/08 09:33:57;;;;;;;22.27;14.00;;;;;;;1.77;80.60;99522.91;1795769;78;25280;-69
2021/01/08 09:36:38;;;;;;;19.43;14.00;;;;;;;1.84;80.22;99526.92;1795951;78;25194;-69
2021/01/08 09:39:10;;;;;;;19.97;13.77;;;;;;;1.85;80.13;99521.67;1795851;78;25225;-68
2021/01/08 09:41:39;;;;;;;23.00;15.97;;;;;;;1.89;79.39;99526.73;1795683;79;25201;-69
2021/01/08 09:44:12;;;;;;;22.33;15.97;;;;;;;1.87;79.54;99516.88;1795816;79;25664;-69
2021/01/08 09:47:01;;;;;;;30.37;20.73;;;;;;;1.84;79.22;99519.14;1795554;79;25293;-69
2021/01/08 09:49:52;;;;;;;22.90;15.67;;;;;;;1.77;79.64;99518.56;1795378;78;25941;-69
2021/01/08 09:52:29;;;;;;;19.33;13.50;;;;;;;1.79;79.72;99517.20;1795821;79;25253;-69
2021/01/08 09:54:56;;;;;;;17.30;12.47;;;;;;;1.83;79.12;99514.88;1795861;79;25075;-69
2021/01/08 09:57:37;;;;;;;18.70;12.07;;;;;;;1.86;78.68;99516.05;1795769;78;25206;-70
2021/01/08 10:00:11;;;;;;;17.47;13.60;;;;;;;1.83;79.26;99517.01;1795852;78;25706;-68
2021/01/08 10:02:44;;;;;;;15.67;12.40;;;;;;;1.89;78.94;99504.22;1795880;78;25521;-69
2021/01/08 10:05:27;;;;;;;15.23;12.07;;;;;;;1.92;78.97;99504.55;1795771;79;25193;-69
2021/01/08 10:07:58;;;;;;;12.73;10.77;;;;;;;1.96;79.00;99503.49;1795739;78;25655;-68
2021/01/08 10:10:37;;;;;;;18.27;13.83;;;;;;;2.02;78.26;99507.95;1795715;78;25482;-69
2021/01/08 10:13:07;;;;;;;15.23;12.63;;;;;;;2.02;78.60;99510.55;1795627;78;25182;-69
2021/01/08 10:15:40;;;;;;;27.67;18.67;;;;;;;2.04;78.78;99507.45;1795613;79;25221;-69
2021/01/08 10:18:18;;;;;;;15.37;12.43;;;;;;;2.10;78.58;99512.81;1795829;78;25126;-69
2021/01/08 10:20:59;;;;;;;16.57;12.07;;;;;;;2.15;78.84;99516.05;1795510;79;25222;-69
2021/01/08 10:23:28;;;;;;;16.07;12.20;;;;;;;2.21;79.06;99511.02;1768851;79;25110;-69
2021/01/08 10:26:14;;;;;;;17.13;12.77;;;;;;;2.28;77.95;99512.45;1769545;79;25051;-69
2021/01/08 10:28:55;;;;;;;13.30;9.70;;;;;;;2.31;77.08;99514.05;1795722;78;25270;-70
2021/01/08 10:31:24;;;;;;;15.40;12.30;;;;;;;2.29;77.14;99504.20;1795625;79;25569;-68
2021/01/08 10:34:01;;;;;;;18.93;13.17;;;;;;;2.32;76.69;99506.66;1768898;79;25150;-68
2021/01/08 10:36:29;;;;;;;16.83;12.67;;;;;;;2.33;76.80;99506.59;1795887;78;25201;-69
2021/01/08 10:38:57;;;;;;;14.10;11.10;;;;;;;2.35;76.68;99502.64;1795945;79;25059;-69
2021/01/08 10:41:25;;;;;;;14.67;11.17;;;;;;;2.38;76.88;99499.88;1795316;78;25264;-69
2021/01/08 10:43:53;;;;;;;15.43;12.40;;;;;;;2.41;76.69;99494.55;1795755;79;25313;-69
2021/01/08 10:46:21;;;;;;;13.03;10.23;;;;;;;2.45;76.34;99490.91;1795267;78;25307;-71
2021/01/08 10:48:50;;;;;;;17.73;14.23;;;;;;;2.50;76.01;99498.03;1795793;78;25731;-68
2021/01/08 10:51:16;;;;;;;16.67;13.53;;;;;;;2.52;75.22;99506.58;1795698;79;25641;-67
2021/01/08 10:53:43;;;;;;;23.57;17.93;;;;;;;2.48;75.61;99495.97;1795875;78;25047;-68
2021/01/08 10:56:10;;;;;;;11.67;9.93;;;;;;;2.51;75.78;99491.91;1795695;78;25338;-67
2021/01/08 10:58:36;;;;;;;13.07;10.30;;;;;;;2.60;75.20;99495.85;1795799;79;25067;-67
2021/01/08 11:01:03;;;;;;;13.40;8.57;;;;;;;2.59;75.46;99491.09;1795819;78;25288;-67
2021/01/08 11:03:30;;;;;;;12.50;9.83;;;;;;;2.64;74.70;99492.65;1769108;79;25728;-68
2021/01/08 11:05:57;;;;;;;9.70;8.33;;;;;;;2.67;74.41;99489.91;1795813;78;25739;-67
2021/01/08 11:08:24;;;;;;;11.97;9.07;;;;;;;2.66;74.12;99485.16;1795742;79;25490;-67
2021/01/08 11:10:51;;;;;;;11.53;8.90;;;;;;;2.69;74.47;99490.67;1795629;78;25133;-69
2021/01/08 11:13:17;;;;;;;11.70;9.50;;;;;;;2.71;73.96;99490.14;1795566;79;25595;-69
2021/01/08 11:15:44;;;;;;;15.10;11.60;;;;;;;2.69;74.51;99477.69;1793393;78;25060;-68
2021/01/08 11:18:11;;;;;;;23.80;14.93;;;;;;;2.74;73.74;99474.42;1790651;80;25182;-70
2021/01/08 11:20:40;;;;;;;23.03;15.20;;;;;;;2.73;74.09;99485.27;1790363;79;25074;-70
2021/01/08 11:23:06;;;;;;;24.10;15.33;;;;;;;2.76;73.89;99486.86;1790295;78;25130;-69
2021/01/08 11:25:33;;;;;;;20.37;14.87;;;;;;;2.73;73.68;99484.41;1790571;79;25131;-69
2021/01/08 11:28:00;;;;;;;16.03;11.13;;;;;;;2.69;73.64;99482.88;1790551;80;25199;-69
2021/01/08 11:30:27;;;;;;;17.30;12.73;;;;;;;2.62;73.62;99478.44;1790520;80;25189;-69
2021/01/08 11:32:54;;;;;;;16.13;12.23;;;;;;;2.55;73.66;99480.95;1790364;80;25126;-69
2021/01/08 11:35:20;;;;;;;17.27;13.57;;;;;;;2.48;74.02;99480.39;1790472;78;25273;-68
2021/01/08 11:37:47;;;;;;;17.30;12.93;;;;;;;2.44;74.20;99480.59;1790690;78;25079;-69
2021/01/08 11:40:15;;;;;;;23.60;15.30;;;;;;;2.44;73.82;99484.49;1790540;80;25241;-68